createdAt,value
2022-12-08T00:03:59.405Z,0.93
2022-12-08T00:14:03.480Z,0.87
2022-12-08T00:24:07.665Z,0.81
2022-12-08T00:34:14.233Z,0.82
2022-12-08T00:44:19.403Z,0.88
2022-12-08T00:54:23.976Z,0.92
2022-12-08T01:04:27.944Z,0.98
2022-12-08T01:14:31.967Z,1.07
2022-12-08T01:24:35.642Z,1.05
2022-12-08T01:34:39.855Z,0.98
2022-12-08T01:44:43.518Z,0.98
2022-12-08T01:54:57.107Z,1.03
2022-12-08T02:05:02.379Z,0.97
2022-12-08T02:15:06.736Z,0.89
2022-12-08T02:25:10.361Z,0.79
2022-12-08T02:35:19.348Z,0.70
2022-12-08T02:45:33.331Z,0.53
2022-12-08T02:55:55.758Z,0.26
2022-12-08T03:06:11.679Z,0.09
2022-12-08T03:16:20.205Z,0.14
2022-12-08T03:26:57.504Z,0.35
2022-12-08T03:37:02.844Z,0.50
2022-12-08T03:47:06.661Z,0.34
2022-12-08T03:57:10.301Z,0.24
2022-12-08T04:07:14.088Z,0.14
2022-12-08T04:17:17.859Z,0.14
2022-12-08T04:27:21.852Z,0.11
2022-12-08T04:37:25.611Z,-0.03
2022-12-08T04:47:29.669Z,-0.24
2022-12-08T04:57:33.441Z,-0.27
2022-12-08T05:07:37.230Z,-0.24
2022-12-08T05:17:41.092Z,-0.20
2022-12-08T05:27:44.941Z,-0.29
2022-12-08T05:37:48.815Z,-0.38
2022-12-08T05:47:54.213Z,-0.29
2022-12-08T05:57:59.955Z,-0.25
2022-12-08T06:08:07.426Z,-0.34
2022-12-08T06:18:12.282Z,-0.41
2022-12-08T06:28:16.472Z,-0.28
2022-12-08T06:38:20.518Z,0.03
2022-12-08T06:48:24.597Z,0.41
2022-12-08T06:58:28.683Z,0.70
2022-12-08T07:08:34.033Z,0.89
2022-12-08T07:18:38.657Z,1.16
2022-12-08T07:28:43.342Z,1.45
2022-12-08T07:38:48.051Z,1.79
2022-12-08T07:48:56.005Z,2.11
2022-12-08T07:58:59.554Z,2.46
2022-12-08T08:09:04.041Z,2.72
2022-12-08T08:19:07.913Z,2.92
2022-12-08T08:29:11.987Z,3.14
2022-12-08T08:39:16.272Z,3.38
2022-12-08T08:49:20.518Z,3.60
2022-12-08T08:59:25.229Z,3.81
2022-12-08T09:09:28.996Z,3.97
2022-12-08T09:19:33.505Z,4.20
2022-12-08T09:29:38.683Z,4.37
2022-12-08T09:39:42.447Z,4.33
2022-12-08T09:50:07.984Z,4.40
2022-12-08T10:00:14.360Z,4.44
2022-12-08T10:10:42.255Z,4.59
2022-12-08T10:20:49.704Z,4.78
2022-12-08T10:30:54.342Z,5.10
2022-12-08T10:41:09.948Z,5.32
2022-12-08T10:51:28.554Z,5.55
2022-12-08T11:01:39.573Z,5.79
2022-12-08T11:11:59.539Z,5.88
2022-12-08T11:22:21.532Z,5.84
2022-12-08T11:32:25.468Z,5.87
2022-12-08T11:42:36.009Z,5.76
2022-12-08T11:52:47.349Z,5.82
2022-12-08T12:03:00.703Z,5.91
2022-12-08T12:13:30.583Z,5.96
2022-12-08T12:23:42.850Z,6.07
2022-12-08T12:33:49.469Z,6.10
2022-12-08T12:44:16.043Z,6.02
2022-12-08T12:54:22.596Z,6.11
2022-12-08T13:04:33.781Z,6.05
2022-12-08T13:14:47.165Z,5.82
2022-12-08T13:24:51.372Z,5.69
2022-12-08T13:35:00.465Z,5.51
2022-12-08T14:06:15.693Z,4.97
2022-12-08T14:16:37.182Z,4.81
2022-12-08T14:26:41.574Z,4.64
2022-12-08T14:36:46.055Z,4.41
2022-12-08T14:47:07.520Z,4.25
2022-12-08T14:57:15.326Z,4.15
2022-12-08T15:07:28.642Z,3.90
2022-12-08T15:17:40.947Z,3.48
2022-12-08T15:27:50.578Z,3.17
2022-12-08T15:37:54.817Z,2.98
2022-12-08T15:47:58.792Z,2.82
2022-12-08T15:58:52.555Z,2.60
2022-12-08T16:08:47.446Z,2.35
2022-12-08T16:18:53.470Z,2.30
2022-12-08T16:28:57.849Z,2.42
2022-12-08T16:39:02.931Z,2.25
2022-12-08T16:49:09.587Z,2.06
2022-12-08T16:59:13.664Z,2.01
2022-12-08T17:09:17.830Z,1.93
2022-12-08T17:19:21.855Z,1.91
2022-12-08T17:29:25.895Z,2.00
2022-12-08T17:39:30.060Z,1.92
2022-12-08T17:49:35.307Z,1.84
2022-12-08T17:59:41.064Z,1.86
2022-12-08T18:09:46.425Z,1.79
2022-12-08T18:19:50.875Z,1.95
2022-12-08T18:29:55.761Z,2.09
2022-12-08T18:40:00.634Z,2.00
2022-12-08T18:50:08.310Z,2.01
2022-12-08T19:00:16.706Z,2.14
2022-12-08T19:10:21.470Z,2.23
2022-12-08T19:20:29.732Z,2.29
2022-12-08T19:30:37.855Z,2.38
2022-12-08T19:41:04.384Z,2.45
2022-12-08T19:51:10.822Z,2.39
2022-12-08T20:01:17.990Z,2.21
2022-12-08T20:11:24.527Z,2.18
2022-12-08T20:21:30.916Z,2.36
2022-12-08T20:31:40.123Z,2.52
2022-12-08T20:41:47.822Z,2.41
2022-12-08T20:52:00.185Z,2.34
2022-12-08T21:02:04.963Z,2.37
2022-12-08T21:12:09.944Z,2.39
2022-12-08T21:22:15.200Z,2.23
2022-12-08T21:32:19.298Z,2.30
2022-12-08T21:42:41.823Z,2.30
2022-12-08T21:52:48.309Z,2.33
2022-12-08T22:02:52.992Z,2.35
2022-12-08T22:12:57.504Z,2.40
2022-12-08T22:23:01.938Z,2.33
2022-12-08T22:33:05.946Z,2.25
2022-12-08T22:43:10.104Z,2.18
2022-12-08T22:53:14.200Z,2.21
2022-12-08T23:03:18.280Z,2.27
2022-12-08T23:13:22.414Z,2.34
2022-12-08T23:23:26.068Z,2.25
2022-12-08T23:33:30.508Z,2.28
2022-12-08T23:43:34.804Z,2.19
2022-12-08T23:53:39.159Z,2.01
